Terminal Aerodrome Forecast
Issued by NWS

Home | Current Version | Previous Version | Text Only | Print | Product List | Glossary On
Versions: 1 2 3 4 5 6 7 8 9 10 11 12 13 14 15
000
FTUS46 KMTR 230526
TAFOAK
TAF
KOAK 230526Z 2306/2412 34006KT P6SM FEW008
     FM231100 31007KT 5SM HZ SCT008
      TEMPO 2313/2316 BKN008
     FM231700 29007KT P6SM SKC
     FM232100 31014KT P6SM SKC
     FM240500 31009KT P6SM SCT009
     FM240700 30006KT P6SM OVC008=

USA.gov is the U.S. government's official web portal to all federal, state and local government web resources and services.